• Join FlightAware (Why Join?)
  • Login
  • US Flag 
05:33AM EDT


 

Airport Tracker/Info


-or-


 

Live Flight TrackerFlight Track Log ✈ ASQ5685 ✈ 05-May-2013 ✈ KATL - KIAD

Flight Track Log - Related Links

Times and Time Zones

All times are in EDT time to prevent confusion due to time zone crossing. See the ASQ5685 flight status page for this flight to view local times or setup timezone preferences in your user account.

Time Position Orientation Groundspeed Altitude Reporting Facility
EDT Latitude Longitude Course Direction KTS MPH feet Rate Location/Type
09:43AM 33.6333 -84.4667 48° Northeast 172 198 2,500  Level Atlanta TRACON
09:44AM 33.6000 -84.5333 239° Southwest 248 285 4,100 2,160 Climbing Atlanta TRACON
09:45AM 33.8592 -84.1635 73° East  Level Estimated
09:45AM 33.5500 -84.5833 220° Southwest 277 319 6,900  Level Atlanta TRACON
09:46AM 33.9333 -84.0750 54° Northeast  Level Estimated
09:46AM 33.4553 -84.5144 149° Southeast 257 296 11,200  Level Atlanta Center
09:47AM 33.9057 -83.9538 105° East  Level FlightAware Approximate
09:47AM 33.4556 -84.4022 90° East 278 320 12,400  Level Atlanta Center
09:48AM 33.9805 -83.8663 48° Northeast  Level Estimated
09:48AM 33.4706 -84.2828 81° East 343 395 13,400  Level Atlanta Center
09:49AM 33.5561 -84.1933 41° Northeast 363 418 14,400 1,020 Climbing Atlanta Center
09:50AM 33.6378 -84.0911 46° Northeast 402 463 15,500 1,260 Climbing Atlanta Center
09:51AM 33.7192 -83.9864 47° Northeast 420 483 17,000 1,500 Climbing Atlanta Center
09:52AM 33.7961 -83.8839 48° Northeast 420 483 18,600 1,500 Climbing Atlanta Center
09:53AM 33.8775 -83.7836 46° Northeast 415 478 20,100 1,500 Climbing Atlanta Center
09:54AM 33.9522 -83.6806 49° Northeast 410 472 21,700 1,260 Climbing Atlanta Center
09:55AM 34.0272 -83.5625 53° Northeast 405 466 22,700 780 Climbing Atlanta Center
09:56AM 34.0975 -83.4492 53° Northeast 411 473 23,300 600 Climbing Atlanta Center
09:57AM 34.1700 -83.3333 53° Northeast 424 488 23,900 540 Climbing Atlanta Center
09:58AM 34.2464 -83.2094 53° Northeast 441 507 24,400 480 Climbing Atlanta Center
09:59AM 34.3206 -83.0881 53° Northeast 447 514 24,900 660 Climbing Atlanta Center
10:00AM 34.3989 -82.9664 52° Northeast 454 522 25,800 900 Climbing Atlanta Center
10:01AM 34.4750 -82.8469 52° Northeast 454 522 26,800 1,020 Climbing Atlanta Center
10:02AM 34.5469 -82.7300 53° Northeast 437 503 27,900 1,020 Climbing Atlanta Center
10:03AM 34.6125 -82.6128 56° Northeast 428 493 28,900 540 Climbing Atlanta Center
10:04AM 34.6822 -82.5081 51° Northeast 422 486 29,000  Climbing Atlanta Center
10:05AM 34.7536 -82.3878 54° Northeast 427 491 29,000  Level Atlanta Center
10:06AM 34.8292 -82.2675 53° Northeast 439 505 29,000  Level Atlanta Center
10:07AM 34.9025 -82.1419 55° Northeast 444 511 29,000  Level Atlanta Center
10:08AM 34.9839 -82.0158 52° Northeast 437 503 29,000  Level Atlanta Center
10:09AM 35.0547 -81.8947 54° Northeast 443 510 29,000  Level Atlanta Center
10:10AM 35.1214 -81.7686 57° Northeast 438 504 29,000  Level Atlanta Center
10:11AM 35.1858 -81.6422 58° Northeast 433 498 29,000  Level Atlanta Center
10:12AM 35.2522 -81.5158 57° Northeast 439 505 29,000  Level Atlanta Center
10:13AM 35.3183 -81.3892 57° Northeast 439 505 29,000  Level Atlanta Center
10:14AM 35.3822 -81.2597 59° Northeast 439 505 29,000  Level Atlanta Center
10:15AM 35.4481 -81.1300 58° Northeast 444 511 29,000  Level Atlanta Center
10:16AM 35.5181 -81.0025 56° Northeast 444 511 29,000  Level Atlanta Center
10:17AM 35.5836 -80.8747 58° Northeast 444 511 29,000  Level Atlanta Center
10:18AM 35.6492 -80.7497 57° Northeast 444 511 29,000  Level Atlanta Center
10:19AM 35.7144 -80.6242 57° Northeast 444 511 29,000  Level Atlanta Center
10:20AM 35.7778 -80.4961 59° Northeast 439 505 29,000  Level Atlanta Center
10:22AM 35.9000 -80.2614 57° Northeast 457 526 29,000  Level Washington Center
10:23AM 35.9656 -80.1319 58° Northeast 444 511 29,000  Level Washington Center
10:24AM 36.0239 -80.0222 57° Northeast 433 498 29,000  Level Washington Center
10:25AM 36.0889 -79.9000 57° Northeast 433 498 29,000  Level Washington Center
10:26AM 36.1689 -79.7603 55° Northeast 438 504 29,000 -60 Level Washington Center
10:27AM 36.2381 -79.6353 56° Northeast 443 510 28,900 -600 Descending Washington Center
10:28AM 36.3111 -79.5050 55° Northeast 443 510 27,900 -960 Descending Washington Center
10:29AM 36.3861 -79.3769 54° Northeast 449 517 27,000 -840 Descending Washington Center
10:30AM 36.4528 -79.2536 56° Northeast 462 532 26,300 -840 Descending Washington Center
10:31AM 36.5383 -79.1078 54° Northeast 467 537 25,400 -720 Descending Washington Center
10:32AM 36.6133 -78.9742 55° Northeast 467 537 25,000 -240 Descending Washington Center
10:33AM 36.6817 -78.8372 58° Northeast 462 532 25,000  Level Washington Center
10:34AM 36.7539 -78.7106 55° Northeast 457 526 25,000  Level Washington Center
10:35AM 36.8297 -78.6019 49° Northeast 438 504 25,000 -120 Level Washington Center
10:36AM 36.9214 -78.5275 33° Northeast 425 489 24,800 -480 Descending Washington Center
10:37AM 37.0236 -78.4406 34° Northeast 430 495 24,100 60 Descending Washington Center
10:38AM 37.1278 -78.3558 33° Northeast 441 507 25,000 -720 Climbing Washington Center
10:39AM 37.2342 -78.2656 34° Northeast 447 514 22,800 -1,500 Descending Washington Center
10:40AM 37.3467 -78.1678 35° Northeast 447 514 22,000 -420 Descending Washington Center
10:41AM 37.4361 -78.0922 34° Northeast 442 509 22,000  Level Washington Center
10:42AM 37.5358 -78.0064 34° Northeast 437 503 22,000  Level Washington Center
10:43AM 37.6333 -77.9206 35° Northeast 432 497 22,000 -720 Level Washington Center
10:44AM 37.7311 -77.8367 34° Northeast 427 491 20,600 -2,040 Descending Washington Center
10:45AM 37.8242 -77.7556 35° Northeast 427 491 18,000 -2,460 Descending Washington Center
10:46AM 37.9217 -77.6714 34° Northeast 406 467 15,700 -2,460 Descending Washington Center
10:47AM 38.0064 -77.6000 34° Northeast 378 435 13,200 -2,400 Descending Washington Center
10:48AM 38.0803 -77.5386 33° Northeast 362 417 11,000 -1,620 Descending Washington Center
10:49AM 38.1606 -77.4694 34° Northeast 356 410 10,000 -840 Descending Washington Center
10:50AM 38.2344 -77.4183 29° Northeast 328 377 9,300 -1,320 Descending Washington Center
10:51AM 38.3078 -77.3964 13° North 299 344 7,500 -1,680 Descending Washington Center
10:52AM 38.3778 -77.4456 331° Northwest 254 292 6,000 -1,260 Descending Washington Center
10:53AM 38.4528 -77.4503 357° North 259 298 5,000 -960 Descending Washington Center
10:54AM 38.5300 -77.4469 North 264 304 4,100 -540 Descending Washington Center
10:55AM 38.6011 -77.4458 North 264 304 4,000 -600 Descending Washington Center
10:56AM 38.6667 -77.4333 North 252 290 3,100 -780 Descending Potomac TRACON
10:57AM 38.7333 -77.4333 360° North 245 282 2,600 -660 Descending Potomac TRACON
10:58AM 38.8000 -77.4333 360° North 234 269 1,900 -780 Descending Potomac TRACON